createdAt,value
2019-03-28T00:00:05.966Z,14.35
2019-03-28T00:02:34.404Z,15.03
2019-03-28T00:05:02.790Z,14.40
2019-03-28T00:07:31.255Z,15.40
2019-03-28T00:09:59.630Z,15.13
2019-03-28T00:12:29.073Z,15.50
2019-03-28T00:14:57.454Z,16.90
2019-03-28T00:17:25.942Z,17.10
2019-03-28T00:19:54.376Z,16.35
2019-03-28T00:22:37.482Z,16.23
2019-03-28T00:25:07.585Z,16.27
2019-03-28T00:27:36.002Z,16.32
2019-03-28T00:30:06.406Z,15.72
2019-03-28T00:32:35.914Z,16.45
2019-03-28T00:35:05.922Z,17.32
2019-03-28T00:37:35.225Z,17.98
2019-03-28T00:40:04.799Z,17.67
2019-03-28T00:42:33.694Z,17.27
2019-03-28T00:45:02.069Z,15.93
2019-03-28T00:47:30.480Z,16.95
2019-03-28T00:49:58.867Z,17.23
2019-03-28T00:52:27.455Z,18.35
2019-03-28T00:54:55.831Z,17.90
2019-03-28T00:57:24.264Z,20.05
2019-03-28T00:59:52.663Z,18.80
2019-03-28T01:02:21.242Z,19.87
2019-03-28T01:04:49.861Z,18.17
2019-03-28T01:07:18.228Z,19.65
2019-03-28T01:09:46.643Z,18.70
2019-03-28T01:12:16.003Z,18.62
2019-03-28T01:14:44.466Z,19.02
2019-03-28T01:17:12.837Z,20.23
2019-03-28T01:19:41.282Z,20.45
2019-03-28T01:22:09.667Z,20.68
2019-03-28T01:24:38.089Z,19.77
2019-03-28T01:27:06.537Z,19.70
2019-03-28T01:29:34.932Z,18.37
2019-03-28T01:32:03.370Z,21.40
2019-03-28T01:34:31.824Z,22.45
2019-03-28T01:37:00.189Z,19.57
2019-03-28T01:39:28.670Z,20.82
2019-03-28T01:41:57.047Z,19.90
2019-03-28T01:44:25.466Z,20.92
2019-03-28T01:46:53.850Z,21.25
2019-03-28T01:49:22.294Z,19.40
2019-03-28T01:51:50.677Z,20.88
2019-03-28T01:54:20.073Z,20.35
2019-03-28T01:56:48.497Z,22.75
2019-03-28T01:59:16.883Z,21.62
2019-03-28T02:01:45.300Z,21.80
2019-03-28T02:04:13.709Z,22.27
2019-03-28T02:06:42.097Z,21.45
2019-03-28T02:09:10.719Z,21.42
2019-03-28T02:11:39.133Z,23.02
2019-03-28T02:14:07.564Z,21.35
2019-03-28T02:16:36.006Z,24.70
2019-03-28T02:19:06.454Z,21.70
2019-03-28T02:21:35.056Z,22.32
2019-03-28T02:24:03.514Z,22.67
2019-03-28T02:26:31.903Z,23.10
2019-03-28T02:29:00.360Z,23.10
2019-03-28T02:31:28.803Z,21.77
2019-03-28T02:33:57.204Z,22.20
2019-03-28T02:36:25.593Z,23.05
2019-03-28T02:38:54.003Z,23.15
2019-03-28T02:41:22.481Z,22.73
2019-03-28T02:43:50.932Z,24.67
2019-03-28T02:46:19.368Z,23.85
2019-03-28T02:48:47.749Z,22.25
2019-03-28T02:51:16.233Z,21.17
2019-03-28T02:53:44.602Z,23.85
2019-03-28T02:56:13.084Z,22.35
2019-03-28T02:58:41.454Z,26.65
2019-03-28T03:01:10.024Z,24.35
2019-03-28T03:03:39.325Z,24.87
2019-03-28T03:06:07.735Z,24.85
2019-03-28T03:08:36.127Z,24.85
2019-03-28T03:11:04.533Z,25.02
2019-03-28T03:13:33.015Z,26.55
2019-03-28T03:16:01.403Z,29.23
2019-03-28T03:18:29.819Z,26.85
2019-03-28T03:20:58.210Z,27.58
2019-03-28T03:23:26.687Z,27.48
2019-03-28T03:25:55.102Z,27.05
2019-03-28T03:28:23.501Z,26.23
2019-03-28T03:30:51.903Z,27.52
2019-03-28T03:33:20.537Z,25.62
2019-03-28T03:35:50.117Z,28.10
2019-03-28T03:38:18.630Z,26.87
2019-03-28T03:40:47.018Z,27.80
2019-03-28T03:43:15.407Z,27.42
2019-03-28T03:45:43.814Z,27.10
2019-03-28T03:48:12.305Z,28.05
2019-03-28T03:50:40.814Z,27.48
2019-03-28T03:53:09.253Z,27.60
2019-03-28T03:55:37.762Z,30.20
2019-03-28T03:58:15.660Z,28.60
2019-03-28T04:00:36.690Z,28.30
2019-03-28T04:03:05.077Z,29.57
2019-03-28T04:05:33.544Z,29.12
2019-03-28T04:08:01.912Z,28.90
2019-03-28T04:10:30.448Z,28.38
2019-03-28T04:12:58.839Z,26.42
2019-03-28T04:15:27.226Z,28.57
2019-03-28T04:17:55.694Z,29.05
2019-03-28T04:20:24.910Z,28.57
2019-03-28T04:22:53.895Z,30.48
2019-03-28T04:25:22.314Z,26.57
2019-03-28T04:27:50.691Z,30.55
2019-03-28T04:30:19.104Z,29.00
2019-03-28T04:32:47.526Z,27.25
2019-03-28T04:35:15.905Z,29.32
2019-03-28T04:37:44.336Z,29.20
2019-03-28T04:40:12.777Z,28.90
2019-03-28T04:42:41.169Z,31.12
2019-03-28T04:45:32.408Z,28.47
2019-03-28T04:48:01.517Z,30.95
2019-03-28T04:50:30.047Z,29.10
2019-03-28T04:52:58.458Z,31.37
2019-03-28T04:55:26.869Z,29.35
2019-03-28T04:57:55.474Z,24.98
2019-03-28T05:00:24.103Z,27.75
2019-03-28T05:02:52.654Z,29.55
2019-03-28T05:05:21.087Z,29.85
2019-03-28T05:07:49.525Z,30.90
2019-03-28T05:10:17.998Z,31.17
2019-03-28T05:12:46.376Z,28.20
2019-03-28T05:15:14.851Z,32.38
2019-03-28T05:17:43.235Z,31.07
2019-03-28T05:20:13.241Z,28.40
2019-03-28T05:22:41.745Z,31.30
2019-03-28T05:25:10.220Z,29.90
2019-03-28T05:27:38.802Z,31.07
2019-03-28T05:30:09.015Z,30.20
2019-03-28T05:32:38.394Z,30.37
2019-03-28T05:35:07.035Z,30.97
2019-03-28T05:37:36.373Z,29.65
2019-03-28T05:40:07.065Z,29.80
2019-03-28T05:42:35.454Z,31.52
2019-03-28T05:45:06.376Z,31.57
2019-03-28T05:47:34.894Z,30.55
2019-03-28T05:50:03.742Z,32.40
2019-03-28T05:52:32.170Z,30.12
2019-03-28T05:55:00.647Z,32.10
2019-03-28T05:57:29.004Z,31.95
2019-03-28T05:59:57.500Z,31.85
2019-03-28T06:02:26.136Z,30.70
2019-03-28T06:04:54.633Z,32.03
2019-03-28T06:07:23.004Z,29.57
2019-03-28T06:09:51.414Z,31.62
2019-03-28T06:12:19.858Z,33.15
2019-03-28T06:14:48.282Z,32.70
2019-03-28T06:17:16.677Z,32.70
2019-03-28T06:19:45.110Z,32.25
2019-03-28T06:22:13.708Z,31.73
2019-03-28T06:24:42.106Z,32.10
2019-03-28T06:27:10.490Z,31.65
2019-03-28T06:29:38.930Z,30.40
2019-03-28T06:32:07.351Z,30.50
2019-03-28T06:34:35.734Z,31.07
2019-03-28T06:37:04.208Z,30.60
2019-03-28T06:39:32.574Z,30.08
2019-03-28T06:42:01.064Z,32.17
2019-03-28T06:44:29.432Z,30.50
2019-03-28T06:46:57.847Z,31.48
2019-03-28T06:49:26.232Z,29.63
2019-03-28T06:51:54.669Z,31.97
2019-03-28T06:54:24.420Z,32.78
2019-03-28T06:56:52.992Z,29.90
2019-03-28T06:59:21.370Z,28.27
2019-03-28T07:01:52.046Z,29.57
2019-03-28T07:04:20.613Z,29.80
2019-03-28T07:06:48.986Z,29.42
2019-03-28T07:09:18.289Z,29.07
2019-03-28T07:11:47.772Z,28.30
2019-03-28T07:14:16.246Z,31.12
2019-03-28T07:16:44.623Z,31.00
2019-03-28T07:19:13.112Z,29.60
2019-03-28T07:21:41.585Z,30.88
2019-03-28T07:24:10.022Z,31.27
2019-03-28T07:26:38.392Z,30.80
2019-03-28T07:29:06.961Z,28.65
2019-03-28T07:31:35.736Z,30.60
2019-03-28T07:34:27.397Z,29.95
2019-03-28T07:36:55.875Z,29.20
2019-03-28T07:39:24.189Z,29.77
2019-03-28T07:41:53.648Z,27.62
2019-03-28T07:44:22.156Z,27.48
2019-03-28T07:46:50.542Z,29.23
2019-03-28T07:49:19.984Z,29.85
2019-03-28T07:51:48.549Z,29.07
2019-03-28T07:54:16.946Z,30.48
2019-03-28T07:56:45.416Z,31.23
2019-03-28T07:59:13.852Z,32.33
2019-03-28T08:01:42.283Z,29.12
2019-03-28T08:04:12.281Z,28.98
2019-03-28T08:06:49.729Z,31.45
2019-03-28T08:09:10.998Z,29.65
2019-03-28T08:11:39.489Z,30.62
2019-03-28T08:14:07.853Z,29.95
2019-03-28T08:16:36.307Z,29.72
2019-03-28T08:19:07.841Z,29.87
2019-03-28T08:21:34.837Z,27.48
2019-03-28T08:24:03.308Z,29.40
2019-03-28T08:26:31.702Z,27.77
2019-03-28T08:29:00.175Z,28.10
2019-03-28T08:31:28.569Z,28.70
2019-03-28T08:33:56.982Z,27.77
2019-03-28T08:36:25.441Z,27.32
2019-03-28T08:38:53.826Z,28.15
2019-03-28T08:41:22.300Z,25.30
2019-03-28T08:43:50.844Z,25.72
2019-03-28T08:46:20.216Z,25.35
2019-03-28T08:48:48.657Z,24.82
2019-03-28T08:51:17.104Z,24.87
2019-03-28T08:53:45.543Z,26.95
2019-03-28T08:56:13.994Z,24.87
2019-03-28T08:58:42.465Z,24.12
2019-03-28T09:01:10.867Z,25.20
2019-03-28T09:03:39.255Z,25.12
2019-03-28T09:06:07.662Z,24.90
2019-03-28T09:08:36.138Z,23.50
2019-03-28T09:11:04.740Z,21.37
2019-03-28T09:13:33.184Z,23.15
2019-03-28T09:16:02.658Z,22.45
2019-03-28T09:18:31.063Z,21.93
2019-03-28T09:20:59.455Z,23.55
2019-03-28T09:23:27.921Z,21.93
2019-03-28T09:25:56.318Z,22.70
2019-03-28T09:28:24.906Z,21.45
2019-03-28T09:30:54.305Z,21.35
2019-03-28T09:33:22.787Z,19.52
2019-03-28T09:35:51.199Z,24.30
2019-03-28T09:38:19.673Z,22.40
2019-03-28T09:40:48.131Z,20.60
2019-03-28T09:43:16.551Z,21.50
2019-03-28T09:45:45.995Z,20.25
2019-03-28T09:48:14.439Z,21.20
2019-03-28T09:50:42.849Z,22.95
2019-03-28T09:53:11.245Z,20.50
2019-03-28T09:55:39.711Z,20.05
2019-03-28T09:58:08.085Z,19.85
2019-03-28T10:00:36.564Z,20.27
2019-03-28T10:03:04.995Z,19.48
2019-03-28T10:05:33.446Z,18.57
2019-03-28T10:08:01.863Z,18.40
2019-03-28T10:10:30.254Z,18.40
2019-03-28T10:12:58.703Z,17.17
2019-03-28T10:15:27.280Z,18.57
2019-03-28T10:17:55.723Z,16.95
2019-03-28T10:20:24.096Z,17.23
2019-03-28T10:22:52.513Z,15.83
2019-03-28T10:25:20.914Z,16.97
2019-03-28T10:27:49.325Z,18.20
2019-03-28T10:30:19.476Z,17.32
2019-03-28T10:32:47.970Z,16.37
2019-03-28T10:35:23.637Z,17.77
2019-03-28T10:37:52.158Z,17.75
2019-03-28T10:40:20.558Z,18.40
2019-03-28T10:42:48.954Z,17.95
2019-03-28T10:45:17.366Z,16.37
2019-03-28T10:47:45.762Z,15.75
2019-03-28T10:50:14.240Z,12.93
2019-03-28T10:52:42.614Z,15.32
2019-03-28T10:55:11.144Z,17.10
2019-03-28T10:57:39.513Z,16.15
2019-03-28T11:00:08.093Z,15.20
2019-03-28T11:02:36.507Z,17.42
2019-03-28T11:05:05.909Z,17.45
2019-03-28T11:07:34.310Z,16.50
2019-03-28T11:10:02.824Z,16.27
2019-03-28T11:12:31.276Z,16.87
2019-03-28T11:14:59.690Z,18.25
2019-03-28T11:17:28.105Z,15.08
2019-03-28T11:19:56.506Z,14.58
2019-03-28T11:22:24.972Z,14.75
2019-03-28T11:24:53.445Z,12.18
2019-03-28T11:27:21.835Z,12.98
2019-03-28T11:29:50.282Z,12.85
2019-03-28T11:32:18.784Z,12.63
2019-03-28T11:34:47.491Z,11.15
2019-03-28T11:37:25.953Z,13.15
2019-03-28T11:39:46.660Z,12.47
2019-03-28T11:42:15.301Z,11.40
2019-03-28T11:44:43.719Z,12.80
2019-03-28T11:47:12.169Z,12.58
2019-03-28T11:49:40.571Z,13.68
2019-03-28T11:52:09.022Z,13.98
2019-03-28T11:54:37.550Z,14.10
2019-03-28T11:57:05.994Z,13.48
2019-03-28T11:59:34.399Z,12.07
2019-03-28T12:02:18.691Z,12.53
2019-03-28T12:04:33.041Z,12.40
2019-03-28T12:07:01.466Z,11.15
2019-03-28T12:09:29.913Z,11.05
2019-03-28T12:11:58.309Z,11.28
2019-03-28T12:14:26.725Z,9.78
2019-03-28T12:16:55.138Z,9.95
2019-03-28T12:19:23.530Z,10.05
2019-03-28T12:21:52.011Z,10.38
2019-03-28T12:24:20.391Z,8.53
2019-03-28T12:26:48.915Z,9.50
2019-03-28T12:29:17.345Z,9.78
2019-03-28T12:31:46.762Z,8.88
2019-03-28T12:34:15.226Z,10.32
2019-03-28T12:36:44.687Z,10.28
2019-03-28T12:39:15.649Z,9.23
2019-03-28T12:41:43.455Z,7.95
2019-03-28T12:44:11.848Z,8.03
2019-03-28T12:46:40.332Z,8.18
2019-03-28T12:49:08.713Z,7.75
2019-03-28T12:51:37.104Z,8.68
2019-03-28T12:54:05.539Z,9.15
2019-03-28T12:56:33.924Z,9.33
2019-03-28T12:59:02.346Z,9.98
2019-03-28T13:01:30.758Z,9.98
2019-03-28T13:03:59.199Z,10.20
2019-03-28T13:06:27.640Z,8.40
2019-03-28T13:08:56.051Z,10.70
2019-03-28T13:11:24.442Z,7.90
2019-03-28T13:13:52.919Z,7.47
2019-03-28T13:16:21.352Z,7.70
2019-03-28T13:18:49.746Z,7.22
2019-03-28T13:21:18.137Z,15.53
2019-03-28T13:23:46.552Z,10.00
2019-03-28T13:26:15.008Z,9.68
2019-03-28T13:28:43.410Z,9.83
2019-03-28T13:31:11.891Z,9.55
2019-03-28T13:33:43.295Z,9.48
2019-03-28T13:36:12.684Z,9.05
2019-03-28T13:38:41.100Z,8.90
2019-03-28T13:41:09.537Z,9.18
2019-03-28T13:43:38.039Z,10.13
2019-03-28T13:46:06.693Z,8.90
2019-03-28T13:48:35.246Z,8.88
2019-03-28T13:51:03.689Z,8.25
2019-03-28T13:53:39.548Z,8.23
2019-03-28T13:56:02.134Z,9.50
2019-03-28T13:58:30.541Z,8.05
2019-03-28T14:00:58.942Z,7.60
2019-03-28T14:03:27.347Z,8.35
2019-03-28T14:05:55.844Z,6.92
2019-03-28T14:08:24.217Z,6.92
2019-03-28T14:10:52.612Z,6.60
2019-03-28T14:13:21.639Z,6.10
2019-03-28T14:15:50.252Z,6.40
2019-03-28T14:18:18.663Z,5.50
2019-03-28T14:20:47.122Z,5.67
2019-03-28T14:23:15.544Z,5.17
2019-03-28T14:25:44.900Z,4.92
2019-03-28T14:28:13.300Z,5.20
2019-03-28T14:30:41.686Z,4.58
2019-03-28T14:33:12.200Z,5.80
2019-03-28T14:35:40.282Z,5.78
2019-03-28T14:38:08.668Z,5.83
2019-03-28T14:40:37.198Z,5.50
2019-03-28T14:43:07.037Z,4.25
2019-03-28T14:45:43.378Z,4.20
2019-03-28T14:48:11.750Z,4.03
2019-03-28T14:50:40.480Z,3.58
2019-03-28T14:53:08.822Z,5.85
2019-03-28T14:55:37.251Z,4.55
2019-03-28T14:58:06.668Z,3.22
2019-03-28T15:00:46.525Z,3.60
2019-03-28T15:03:25.043Z,3.55
2019-03-28T15:05:43.603Z,3.00
2019-03-28T15:08:11.961Z,1.80
2019-03-28T15:10:40.405Z,2.30
2019-03-28T15:13:08.811Z,2.75
2019-03-28T15:15:37.247Z,3.30
2019-03-28T15:18:05.657Z,2.30
2019-03-28T15:20:34.143Z,2.37
2019-03-28T15:23:02.547Z,2.45
2019-03-28T15:25:30.954Z,2.52
2019-03-28T15:27:59.410Z,2.02
2019-03-28T15:30:27.827Z,2.10
2019-03-28T15:32:56.229Z,2.62
2019-03-28T15:35:24.670Z,2.35
2019-03-28T15:37:53.074Z,1.67
2019-03-28T15:40:21.512Z,1.87
2019-03-28T15:42:49.915Z,2.22
2019-03-28T15:45:18.332Z,2.40
2019-03-28T15:47:46.768Z,1.87
2019-03-28T15:50:15.212Z,2.30
2019-03-28T15:52:43.616Z,2.27
2019-03-28T15:55:14.565Z,2.42
2019-03-28T15:57:42.118Z,2.58
2019-03-28T16:00:13.644Z,2.00
2019-03-28T16:02:42.042Z,1.90
2019-03-28T16:05:10.490Z,1.92
2019-03-28T16:07:38.884Z,1.98
2019-03-28T16:10:07.705Z,1.55
2019-03-28T16:12:36.118Z,1.70
2019-03-28T16:15:07.836Z,2.08
2019-03-28T16:17:36.267Z,1.75
2019-03-28T16:20:06.633Z,1.62
2019-03-28T16:22:35.060Z,1.65
2019-03-28T16:25:04.145Z,1.40
2019-03-28T16:27:32.570Z,1.37
2019-03-28T16:30:00.986Z,1.55
2019-03-28T16:32:32.846Z,1.65
2019-03-28T16:35:01.244Z,1.85
2019-03-28T16:37:29.688Z,1.85
2019-03-28T16:39:58.119Z,1.30
2019-03-28T16:42:26.539Z,1.50
2019-03-28T16:44:54.966Z,2.10
2019-03-28T16:47:23.398Z,1.60
2019-03-28T16:49:51.826Z,1.50
2019-03-28T16:52:20.236Z,1.87
2019-03-28T16:54:48.675Z,1.10
2019-03-28T16:57:17.079Z,1.80
2019-03-28T16:59:45.532Z,1.40
2019-03-28T17:02:14.928Z,2.00
2019-03-28T17:04:43.346Z,1.57
2019-03-28T17:07:11.764Z,1.40
2019-03-28T17:09:40.182Z,1.30
2019-03-28T17:12:08.618Z,1.60
2019-03-28T17:14:37.347Z,1.50
2019-03-28T17:17:05.761Z,1.87
2019-03-28T17:19:34.162Z,1.35
2019-03-28T17:22:02.642Z,2.08
2019-03-28T17:24:31.047Z,1.35
2019-03-28T17:26:59.460Z,2.12
2019-03-28T17:29:27.911Z,2.08
2019-03-28T17:31:57.315Z,1.50
2019-03-28T17:34:34.765Z,1.40
2019-03-28T17:36:55.805Z,1.30
2019-03-28T17:39:24.218Z,1.70
2019-03-28T17:41:57.746Z,1.47
2019-03-28T17:44:26.422Z,1.50
2019-03-28T17:46:54.849Z,1.50
2019-03-28T17:49:23.299Z,2.00
2019-03-28T17:51:51.741Z,1.12
2019-03-28T17:54:20.143Z,1.40
2019-03-28T17:56:49.239Z,1.75
2019-03-28T17:59:17.663Z,1.67
2019-03-28T18:01:47.023Z,1.80
2019-03-28T18:04:22.882Z,1.77
2019-03-28T18:06:46.541Z,1.50
2019-03-28T18:09:15.181Z,1.90
2019-03-28T18:11:43.598Z,2.35
2019-03-28T18:14:12.011Z,2.25
2019-03-28T18:16:40.434Z,1.67
2019-03-28T18:19:08.854Z,1.80
2019-03-28T18:21:37.297Z,2.20
2019-03-28T18:24:06.713Z,1.85
2019-03-28T18:26:35.136Z,1.60
2019-03-28T18:29:03.581Z,2.37
2019-03-28T18:31:32.039Z,1.40
2019-03-28T18:34:00.449Z,1.50
2019-03-28T18:36:28.877Z,2.55
2019-03-28T18:38:57.290Z,2.22
2019-03-28T18:41:25.695Z,2.27
2019-03-28T18:43:54.167Z,1.90
2019-03-28T18:46:22.570Z,2.17
2019-03-28T18:48:51.020Z,2.05
2019-03-28T18:51:19.427Z,2.00
2019-03-28T18:53:47.855Z,1.87
2019-03-28T18:56:16.254Z,2.02
2019-03-28T18:58:44.734Z,2.15
2019-03-28T19:01:13.145Z,2.85
2019-03-28T19:03:43.187Z,3.08
2019-03-28T19:06:14.785Z,2.90
2019-03-28T19:08:41.687Z,2.67
2019-03-28T19:11:10.128Z,3.20
2019-03-28T19:13:39.641Z,3.20
2019-03-28T19:16:08.301Z,3.12
2019-03-28T19:18:36.721Z,3.15
2019-03-28T19:21:05.174Z,3.65
2019-03-28T19:23:33.608Z,3.67
2019-03-28T19:26:02.020Z,4.60
2019-03-28T19:28:30.454Z,4.10
2019-03-28T19:30:58.886Z,4.40
2019-03-28T19:33:27.477Z,4.33
2019-03-28T19:35:56.949Z,3.90
2019-03-28T19:38:25.353Z,3.72
2019-03-28T19:40:53.779Z,4.37
2019-03-28T19:43:23.169Z,4.45
2019-03-28T19:45:51.738Z,3.67
2019-03-28T19:48:20.189Z,4.03
2019-03-28T19:50:48.596Z,4.25
2019-03-28T19:53:17.842Z,4.65
2019-03-28T19:55:46.550Z,3.50
2019-03-28T19:58:14.974Z,4.30
2019-03-28T20:00:44.023Z,5.10
2019-03-28T20:03:12.717Z,4.75
2019-03-28T20:05:47.468Z,5.75
2019-03-28T20:08:15.751Z,5.03
2019-03-28T20:10:41.278Z,4.22
2019-03-28T20:13:09.776Z,4.15
2019-03-28T20:15:38.179Z,5.45
2019-03-28T20:18:06.587Z,5.83
2019-03-28T20:20:35.028Z,5.78
2019-03-28T20:23:03.452Z,5.50
2019-03-28T20:25:32.662Z,5.90
2019-03-28T20:28:01.257Z,5.15
2019-03-28T20:30:29.710Z,5.10
2019-03-28T20:32:58.203Z,5.45
2019-03-28T20:35:26.616Z,6.17
2019-03-28T20:37:55.073Z,6.10
2019-03-28T20:40:24.096Z,5.85
2019-03-28T20:42:53.191Z,5.40
2019-03-28T20:45:22.019Z,5.12
2019-03-28T20:47:50.953Z,6.50
2019-03-28T20:50:19.600Z,6.25
2019-03-28T20:52:48.132Z,6.17
2019-03-28T20:55:16.640Z,6.10
2019-03-28T20:57:45.142Z,6.87
2019-03-28T21:00:13.570Z,6.08
2019-03-28T21:02:41.973Z,5.53
2019-03-28T21:05:10.421Z,6.75
2019-03-28T21:07:46.041Z,6.58
2019-03-28T21:10:20.626Z,4.90
2019-03-28T21:12:49.040Z,6.05
2019-03-28T21:15:17.492Z,6.45
2019-03-28T21:17:45.948Z,6.62
2019-03-28T21:20:14.370Z,7.03
2019-03-28T21:22:43.074Z,5.45
2019-03-28T21:25:11.644Z,5.15
2019-03-28T21:27:40.050Z,4.95
2019-03-28T21:30:09.694Z,6.03
2019-03-28T21:32:54.733Z,5.58
2019-03-28T21:35:13.003Z,6.65
2019-03-28T21:37:41.476Z,5.92
2019-03-28T21:40:09.888Z,5.60
2019-03-28T21:42:38.814Z,6.35
2019-03-28T21:45:07.412Z,6.40
2019-03-28T21:47:36.460Z,6.42
2019-03-28T21:50:06.506Z,5.85
2019-03-28T21:52:34.977Z,6.78
2019-03-28T21:55:04.267Z,5.87
2019-03-28T21:57:32.667Z,6.67
2019-03-28T22:00:01.124Z,5.83
2019-03-28T22:02:29.552Z,6.47
2019-03-28T22:04:57.977Z,5.65
2019-03-28T22:07:26.388Z,6.35
2019-03-28T22:09:54.819Z,6.25
2019-03-28T22:12:24.207Z,5.20
2019-03-28T22:14:52.702Z,5.92
2019-03-28T22:17:21.123Z,5.75
2019-03-28T22:19:51.685Z,7.00
2019-03-28T22:22:20.275Z,7.62
2019-03-28T22:24:48.734Z,6.97
2019-03-28T22:27:17.140Z,7.03
2019-03-28T22:29:49.293Z,7.20
2019-03-28T22:32:17.836Z,8.25
2019-03-28T22:34:47.909Z,7.58
2019-03-28T22:37:16.378Z,7.70
2019-03-28T22:39:44.792Z,8.85
2019-03-28T22:42:13.250Z,8.08
2019-03-28T22:44:41.655Z,9.23
2019-03-28T22:47:10.107Z,10.25
2019-03-28T22:49:38.565Z,9.50
2019-03-28T22:52:06.992Z,10.58
2019-03-28T22:54:35.824Z,9.48
2019-03-28T22:57:04.294Z,10.35
2019-03-28T22:59:32.709Z,10.70
2019-03-28T23:02:01.172Z,11.78
2019-03-28T23:04:30.077Z,13.65
2019-03-28T23:07:10.434Z,12.93
2019-03-28T23:09:28.698Z,12.07
2019-03-28T23:11:57.119Z,13.28
2019-03-28T23:14:25.606Z,12.05
2019-03-28T23:16:54.892Z,13.18
2019-03-28T23:19:23.463Z,10.90
2019-03-28T23:21:52.917Z,12.73
2019-03-28T23:24:21.415Z,12.65
2019-03-28T23:26:49.874Z,13.18
2019-03-28T23:29:18.325Z,12.82
2019-03-28T23:31:46.890Z,14.15
2019-03-28T23:34:15.430Z,13.43
2019-03-28T23:36:43.874Z,15.65
2019-03-28T23:39:12.358Z,18.05
2019-03-28T23:41:40.797Z,15.68
2019-03-28T23:44:09.272Z,15.70
2019-03-28T23:46:37.895Z,19.40
2019-03-28T23:49:06.378Z,20.72
2019-03-28T23:51:35.777Z,22.40
2019-03-28T23:54:04.187Z,22.20
2019-03-28T23:56:32.658Z,20.88
2019-03-28T23:59:01.083Z,20.52
